sensor_id;sensor_type;location;lat;lon;timestamp;P1;durP1;ratioP1;P2;durP2;ratioP2
11228;SDS011;5671;47.936;8.716;2022-08-05T00:02:21;2.73;;;1.87;;
11228;SDS011;5671;47.936;8.716;2022-08-05T00:04:48;4.13;;;2.00;;
11228;SDS011;5671;47.936;8.716;2022-08-05T00:07:15;4.17;;;1.90;;
11228;SDS011;5671;47.936;8.716;2022-08-05T00:09:42;4.33;;;2.07;;
11228;SDS011;5671;47.936;8.716;2022-08-05T00:12:09;3.70;;;1.90;;
11228;SDS011;5671;47.936;8.716;2022-08-05T00:14:37;4.43;;;2.27;;
11228;SDS011;5671;47.936;8.716;2022-08-05T00:17:07;3.53;;;1.77;;
11228;SDS011;5671;47.936;8.716;2022-08-05T00:19:34;4.77;;;2.10;;
11228;SDS011;5671;47.936;8.716;2022-08-05T00:22:01;4.90;;;2.20;;
11228;SDS011;5671;47.936;8.716;2022-08-05T00:24:29;2.13;;;1.93;;
11228;SDS011;5671;47.936;8.716;2022-08-05T00:26:56;4.90;;;2.10;;
11228;SDS011;5671;47.936;8.716;2022-08-05T00:29:23;5.43;;;1.90;;
11228;SDS011;5671;47.936;8.716;2022-08-05T00:31:51;2.20;;;2.00;;
11228;SDS011;5671;47.936;8.716;2022-08-05T00:34:18;3.50;;;2.03;;
11228;SDS011;5671;47.936;8.716;2022-08-05T00:36:45;3.00;;;1.60;;
11228;SDS011;5671;47.936;8.716;2022-08-05T00:39:12;4.17;;;2.00;;
11228;SDS011;5671;47.936;8.716;2022-08-05T00:41:39;1.77;;;1.60;;
11228;SDS011;5671;47.936;8.716;2022-08-05T00:44:11;2.03;;;1.87;;
11228;SDS011;5671;47.936;8.716;2022-08-05T00:46:38;2.40;;;1.77;;
11228;SDS011;5671;47.936;8.716;2022-08-05T00:49:06;3.50;;;1.80;;
11228;SDS011;5671;47.936;8.716;2022-08-05T00:51:33;3.93;;;1.83;;
11228;SDS011;5671;47.936;8.716;2022-08-05T00:54:01;3.07;;;1.83;;
11228;SDS011;5671;47.936;8.716;2022-08-05T00:56:28;4.30;;;2.17;;
11228;SDS011;5671;47.936;8.716;2022-08-05T00:58:55;2.30;;;1.90;;
11228;SDS011;5671;47.936;8.716;2022-08-05T01:01:22;4.50;;;2.23;;
11228;SDS011;5671;47.936;8.716;2022-08-05T01:04:00;3.53;;;2.00;;
11228;SDS011;5671;47.936;8.716;2022-08-05T01:06:33;2.47;;;2.00;;
11228;SDS011;5671;47.936;8.716;2022-08-05T01:09:00;4.23;;;2.30;;
11228;SDS011;5671;47.936;8.716;2022-08-05T01:11:28;3.47;;;2.00;;
11228;SDS011;5671;47.936;8.716;2022-08-05T01:14:05;2.93;;;1.90;;
11228;SDS011;5671;47.936;8.716;2022-08-05T01:16:40;1.90;;;1.80;;
11228;SDS011;5671;47.936;8.716;2022-08-05T01:19:17;1.87;;;1.70;;
11228;SDS011;5671;47.936;8.716;2022-08-05T01:22:05;2.40;;;2.20;;
11228;SDS011;5671;47.936;8.716;2022-08-05T01:28:06;2.30;;;1.90;;
11228;SDS011;5671;47.936;8.716;2022-08-05T01:30:51;2.00;;;1.90;;
11228;SDS011;5671;47.936;8.716;2022-08-05T01:33:22;2.13;;;1.80;;
11228;SDS011;5671;47.936;8.716;2022-08-05T01:35:54;3.03;;;2.03;;
11228;SDS011;5671;47.936;8.716;2022-08-05T01:38:29;3.50;;;2.30;;
11228;SDS011;5671;47.936;8.716;2022-08-05T01:40:58;3.23;;;2.00;;
11228;SDS011;5671;47.936;8.716;2022-08-05T01:43:32;6.83;;;2.10;;
11228;SDS011;5671;47.936;8.716;2022-08-05T01:46:06;3.07;;;2.00;;
11228;SDS011;5671;47.936;8.716;2022-08-05T01:48:36;2.43;;;2.10;;
11228;SDS011;5671;47.936;8.716;2022-08-05T01:51:09;3.13;;;1.83;;
11228;SDS011;5671;47.936;8.716;2022-08-05T01:53:36;2.00;;;1.90;;
11228;SDS011;5671;47.936;8.716;2022-08-05T01:56:05;2.70;;;2.00;;
11228;SDS011;5671;47.936;8.716;2022-08-05T01:58:43;1.80;;;1.70;;
11228;SDS011;5671;47.936;8.716;2022-08-05T02:01:12;2.47;;;2.20;;
11228;SDS011;5671;47.936;8.716;2022-08-05T02:03:45;3.33;;;1.80;;
11228;SDS011;5671;47.936;8.716;2022-08-05T02:06:14;3.67;;;2.20;;
11228;SDS011;5671;47.936;8.716;2022-08-05T02:08:44;2.00;;;1.83;;
11228;SDS011;5671;47.936;8.716;2022-08-05T02:11:19;2.00;;;1.80;;
11228;SDS011;5671;47.936;8.716;2022-08-05T02:13:52;2.20;;;2.00;;
11228;SDS011;5671;47.936;8.716;2022-08-05T02:16:26;3.30;;;1.97;;
11228;SDS011;5671;47.936;8.716;2022-08-05T02:18:58;2.13;;;2.00;;
11228;SDS011;5671;47.936;8.716;2022-08-05T02:21:32;2.73;;;2.17;;
11228;SDS011;5671;47.936;8.716;2022-08-05T02:24:03;2.30;;;2.03;;
11228;SDS011;5671;47.936;8.716;2022-08-05T02:26:35;2.03;;;1.93;;
11228;SDS011;5671;47.936;8.716;2022-08-05T02:29:08;2.67;;;2.10;;
11228;SDS011;5671;47.936;8.716;2022-08-05T02:31:37;3.53;;;1.93;;
11228;SDS011;5671;47.936;8.716;2022-08-05T02:34:07;5.60;;;1.90;;
11228;SDS011;5671;47.936;8.716;2022-08-05T02:36:38;2.73;;;2.07;;
11228;SDS011;5671;47.936;8.716;2022-08-05T02:39:07;2.70;;;1.97;;
11228;SDS011;5671;47.936;8.716;2022-08-05T02:41:35;3.23;;;2.10;;
11228;SDS011;5671;47.936;8.716;2022-08-05T02:44:05;2.17;;;1.97;;
11228;SDS011;5671;47.936;8.716;2022-08-05T02:46:34;2.20;;;2.00;;
11228;SDS011;5671;47.936;8.716;2022-08-05T02:49:04;4.87;;;2.17;;
11228;SDS011;5671;47.936;8.716;2022-08-05T02:51:31;3.07;;;1.93;;
11228;SDS011;5671;47.936;8.716;2022-08-05T02:54:00;2.30;;;2.10;;
11228;SDS011;5671;47.936;8.716;2022-08-05T02:56:27;4.30;;;2.03;;
11228;SDS011;5671;47.936;8.716;2022-08-05T02:58:54;3.37;;;2.00;;
11228;SDS011;5671;47.936;8.716;2022-08-05T03:01:23;3.10;;;1.80;;
11228;SDS011;5671;47.936;8.716;2022-08-05T03:03:53;2.67;;;1.90;;
11228;SDS011;5671;47.936;8.716;2022-08-05T03:06:24;2.13;;;1.97;;
11228;SDS011;5671;47.936;8.716;2022-08-05T03:08:52;4.57;;;2.00;;
11228;SDS011;5671;47.936;8.716;2022-08-05T03:11:21;3.53;;;2.40;;
11228;SDS011;5671;47.936;8.716;2022-08-05T03:13:49;3.97;;;1.83;;
11228;SDS011;5671;47.936;8.716;2022-08-05T03:16:17;4.50;;;2.20;;
11228;SDS011;5671;47.936;8.716;2022-08-05T03:18:45;3.73;;;2.00;;
11228;SDS011;5671;47.936;8.716;2022-08-05T03:21:15;3.00;;;2.10;;
11228;SDS011;5671;47.936;8.716;2022-08-05T03:23:42;4.97;;;2.40;;
11228;SDS011;5671;47.936;8.716;2022-08-05T03:26:10;2.00;;;1.90;;
11228;SDS011;5671;47.936;8.716;2022-08-05T03:28:37;4.43;;;2.13;;
11228;SDS011;5671;47.936;8.716;2022-08-05T03:31:04;2.13;;;2.00;;
11228;SDS011;5671;47.936;8.716;2022-08-05T03:33:32;2.40;;;1.80;;
11228;SDS011;5671;47.936;8.716;2022-08-05T03:36:00;3.07;;;2.33;;
11228;SDS011;5671;47.936;8.716;2022-08-05T03:38:28;2.73;;;2.00;;
11228;SDS011;5671;47.936;8.716;2022-08-05T03:40:55;2.40;;;2.20;;
11228;SDS011;5671;47.936;8.716;2022-08-05T03:43:22;2.83;;;2.30;;
11228;SDS011;5671;47.936;8.716;2022-08-05T03:45:50;6.57;;;2.30;;
11228;SDS011;5671;47.936;8.716;2022-08-05T03:48:18;2.30;;;2.10;;
11228;SDS011;5671;47.936;8.716;2022-08-05T03:50:47;2.63;;;1.90;;
11228;SDS011;5671;47.936;8.716;2022-08-05T03:53:20;3.37;;;2.17;;
11228;SDS011;5671;47.936;8.716;2022-08-05T03:55:59;3.33;;;2.27;;
11228;SDS011;5671;47.936;8.716;2022-08-05T03:58:30;2.87;;;1.93;;
11228;SDS011;5671;47.936;8.716;2022-08-05T04:01:00;2.90;;;2.10;;
11228;SDS011;5671;47.936;8.716;2022-08-05T04:03:30;2.57;;;2.10;;
11228;SDS011;5671;47.936;8.716;2022-08-05T04:06:01;2.23;;;2.13;;
11228;SDS011;5671;47.936;8.716;2022-08-05T04:08:28;3.57;;;2.03;;
11228;SDS011;5671;47.936;8.716;2022-08-05T04:10:58;2.87;;;2.23;;
11228;SDS011;5671;47.936;8.716;2022-08-05T04:13:27;2.37;;;2.17;;
11228;SDS011;5671;47.936;8.716;2022-08-05T04:15:55;2.93;;;2.30;;
11228;SDS011;5671;47.936;8.716;2022-08-05T04:18:22;2.53;;;2.20;;
11228;SDS011;5671;47.936;8.716;2022-08-05T04:20:53;5.00;;;2.20;;
11228;SDS011;5671;47.936;8.716;2022-08-05T04:23:21;2.47;;;2.00;;
11228;SDS011;5671;47.936;8.716;2022-08-05T04:25:49;7.30;;;2.30;;
11228;SDS011;5671;47.936;8.716;2022-08-05T04:28:18;3.13;;;2.30;;
11228;SDS011;5671;47.936;8.716;2022-08-05T04:30:45;3.10;;;2.27;;
11228;SDS011;5671;47.936;8.716;2022-08-05T04:33:13;3.77;;;2.20;;
11228;SDS011;5671;47.936;8.716;2022-08-05T04:35:41;4.13;;;2.43;;
11228;SDS011;5671;47.936;8.716;2022-08-05T04:38:08;2.07;;;1.93;;
11228;SDS011;5671;47.936;8.716;2022-08-05T04:40:36;2.43;;;1.93;;
11228;SDS011;5671;47.936;8.716;2022-08-05T04:43:04;9.00;;;2.73;;
11228;SDS011;5671;47.936;8.716;2022-08-05T04:45:32;4.43;;;2.73;;
11228;SDS011;5671;47.936;8.716;2022-08-05T04:48:03;7.80;;;2.27;;
11228;SDS011;5671;47.936;8.716;2022-08-05T04:50:37;5.27;;;2.27;;
11228;SDS011;5671;47.936;8.716;2022-08-05T04:53:05;2.97;;;2.30;;
11228;SDS011;5671;47.936;8.716;2022-08-05T04:55:32;4.43;;;2.40;;
11228;SDS011;5671;47.936;8.716;2022-08-05T04:57:59;7.90;;;2.50;;
11228;SDS011;5671;47.936;8.716;2022-08-05T05:00:26;2.70;;;2.20;;
11228;SDS011;5671;47.936;8.716;2022-08-05T05:02:55;4.30;;;2.60;;
11228;SDS011;5671;47.936;8.716;2022-08-05T05:05:21;9.87;;;2.90;;
11228;SDS011;5671;47.936;8.716;2022-08-05T05:07:48;2.23;;;2.13;;
11228;SDS011;5671;47.936;8.716;2022-08-05T05:10:16;3.33;;;2.70;;
11228;SDS011;5671;47.936;8.716;2022-08-05T05:12:43;3.30;;;2.63;;
11228;SDS011;5671;47.936;8.716;2022-08-05T05:15:10;8.00;;;2.63;;
11228;SDS011;5671;47.936;8.716;2022-08-05T05:17:37;2.10;;;2.00;;
11228;SDS011;5671;47.936;8.716;2022-08-05T05:20:07;2.50;;;2.30;;
11228;SDS011;5671;47.936;8.716;2022-08-05T05:22:35;5.87;;;2.43;;
11228;SDS011;5671;47.936;8.716;2022-08-05T05:25:02;6.43;;;2.77;;
11228;SDS011;5671;47.936;8.716;2022-08-05T05:27:30;3.30;;;2.20;;
11228;SDS011;5671;47.936;8.716;2022-08-05T05:29:58;2.70;;;2.33;;
11228;SDS011;5671;47.936;8.716;2022-08-05T05:32:25;5.53;;;2.60;;
11228;SDS011;5671;47.936;8.716;2022-08-05T05:34:52;3.17;;;2.33;;
11228;SDS011;5671;47.936;8.716;2022-08-05T05:37:20;2.90;;;2.00;;
11228;SDS011;5671;47.936;8.716;2022-08-05T05:39:47;2.87;;;2.57;;
11228;SDS011;5671;47.936;8.716;2022-08-05T05:42:14;3.10;;;2.40;;
11228;SDS011;5671;47.936;8.716;2022-08-05T05:44:41;2.93;;;2.47;;
11228;SDS011;5671;47.936;8.716;2022-08-05T05:47:08;3.47;;;2.13;;
11228;SDS011;5671;47.936;8.716;2022-08-05T05:49:35;2.57;;;2.13;;
11228;SDS011;5671;47.936;8.716;2022-08-05T05:52:02;3.13;;;2.00;;
11228;SDS011;5671;47.936;8.716;2022-08-05T05:54:31;3.57;;;2.17;;
11228;SDS011;5671;47.936;8.716;2022-08-05T05:56:58;2.20;;;2.00;;
11228;SDS011;5671;47.936;8.716;2022-08-05T05:59:25;2.40;;;2.20;;
11228;SDS011;5671;47.936;8.716;2022-08-05T06:01:52;2.27;;;2.07;;
11228;SDS011;5671;47.936;8.716;2022-08-05T06:04:19;3.90;;;1.87;;
11228;SDS011;5671;47.936;8.716;2022-08-05T06:06:46;2.40;;;1.97;;
11228;SDS011;5671;47.936;8.716;2022-08-05T06:09:13;2.00;;;1.90;;
11228;SDS011;5671;47.936;8.716;2022-08-05T06:11:42;2.97;;;2.10;;
11228;SDS011;5671;47.936;8.716;2022-08-05T06:14:09;5.23;;;2.17;;
11228;SDS011;5671;47.936;8.716;2022-08-05T06:16:36;5.90;;;2.17;;
11228;SDS011;5671;47.936;8.716;2022-08-05T06:19:04;4.13;;;1.97;;
11228;SDS011;5671;47.936;8.716;2022-08-05T06:21:31;2.37;;;1.80;;
11228;SDS011;5671;47.936;8.716;2022-08-05T06:23:58;2.20;;;2.00;;
11228;SDS011;5671;47.936;8.716;2022-08-05T06:26:25;6.07;;;2.33;;
11228;SDS011;5671;47.936;8.716;2022-08-05T06:28:53;3.13;;;2.10;;
11228;SDS011;5671;47.936;8.716;2022-08-05T06:31:20;3.30;;;2.40;;
11228;SDS011;5671;47.936;8.716;2022-08-05T06:33:47;3.23;;;2.00;;
11228;SDS011;5671;47.936;8.716;2022-08-05T06:36:14;3.37;;;2.03;;
11228;SDS011;5671;47.936;8.716;2022-08-05T06:38:41;3.53;;;1.90;;
11228;SDS011;5671;47.936;8.716;2022-08-05T06:41:08;4.10;;;2.20;;
11228;SDS011;5671;47.936;8.716;2022-08-05T06:43:35;3.50;;;2.17;;
11228;SDS011;5671;47.936;8.716;2022-08-05T06:46:04;3.53;;;2.20;;
11228;SDS011;5671;47.936;8.716;2022-08-05T06:48:31;2.50;;;1.93;;
11228;SDS011;5671;47.936;8.716;2022-08-05T06:50:58;2.10;;;1.90;;
11228;SDS011;5671;47.936;8.716;2022-08-05T06:53:26;2.93;;;2.03;;
11228;SDS011;5671;47.936;8.716;2022-08-05T06:55:53;6.90;;;1.90;;
11228;SDS011;5671;47.936;8.716;2022-08-05T06:58:19;3.07;;;2.23;;
11228;SDS011;5671;47.936;8.716;2022-08-05T07:00:46;8.17;;;2.50;;
11228;SDS011;5671;47.936;8.716;2022-08-05T07:03:15;3.67;;;2.43;;
11228;SDS011;5671;47.936;8.716;2022-08-05T07:05:42;5.17;;;2.50;;
11228;SDS011;5671;47.936;8.716;2022-08-05T07:08:09;4.63;;;2.37;;
11228;SDS011;5671;47.936;8.716;2022-08-05T07:10:36;9.40;;;2.57;;
11228;SDS011;5671;47.936;8.716;2022-08-05T07:13:04;5.83;;;2.50;;
11228;SDS011;5671;47.936;8.716;2022-08-05T07:15:48;2.87;;;2.23;;
11228;SDS011;5671;47.936;8.716;2022-08-05T07:18:34;4.40;;;2.50;;
11228;SDS011;5671;47.936;8.716;2022-08-05T07:21:01;4.93;;;2.50;;
11228;SDS011;5671;47.936;8.716;2022-08-05T07:23:28;8.70;;;2.77;;
11228;SDS011;5671;47.936;8.716;2022-08-05T07:25:55;4.17;;;2.90;;
11228;SDS011;5671;47.936;8.716;2022-08-05T07:28:22;3.73;;;2.30;;
11228;SDS011;5671;47.936;8.716;2022-08-05T07:30:49;6.10;;;2.63;;
11228;SDS011;5671;47.936;8.716;2022-08-05T07:33:16;2.97;;;2.57;;
11228;SDS011;5671;47.936;8.716;2022-08-05T07:35:46;5.90;;;2.93;;
11228;SDS011;5671;47.936;8.716;2022-08-05T07:38:13;2.90;;;2.60;;
11228;SDS011;5671;47.936;8.716;2022-08-05T07:40:40;4.07;;;2.27;;
11228;SDS011;5671;47.936;8.716;2022-08-05T07:43:07;9.47;;;2.57;;
11228;SDS011;5671;47.936;8.716;2022-08-05T07:45:36;4.30;;;2.60;;
11228;SDS011;5671;47.936;8.716;2022-08-05T07:48:03;5.10;;;2.57;;
11228;SDS011;5671;47.936;8.716;2022-08-05T07:50:30;2.93;;;2.43;;
11228;SDS011;5671;47.936;8.716;2022-08-05T07:52:58;2.70;;;2.40;;
11228;SDS011;5671;47.936;8.716;2022-08-05T07:55:25;6.07;;;2.50;;
11228;SDS011;5671;47.936;8.716;2022-08-05T07:57:52;7.30;;;2.50;;
11228;SDS011;5671;47.936;8.716;2022-08-05T08:00:19;6.53;;;2.80;;
11228;SDS011;5671;47.936;8.716;2022-08-05T08:02:46;3.27;;;2.50;;
11228;SDS011;5671;47.936;8.716;2022-08-05T08:05:14;7.10;;;2.30;;
11228;SDS011;5671;47.936;8.716;2022-08-05T08:07:41;6.33;;;2.57;;
11228;SDS011;5671;47.936;8.716;2022-08-05T08:10:10;4.67;;;2.33;;
11228;SDS011;5671;47.936;8.716;2022-08-05T08:12:37;6.93;;;2.57;;
11228;SDS011;5671;47.936;8.716;2022-08-05T08:15:05;7.80;;;2.40;;
11228;SDS011;5671;47.936;8.716;2022-08-05T08:17:33;4.10;;;2.50;;
11228;SDS011;5671;47.936;8.716;2022-08-05T08:20:00;10.57;;;2.37;;
11228;SDS011;5671;47.936;8.716;2022-08-05T08:22:29;6.90;;;2.60;;
11228;SDS011;5671;47.936;8.716;2022-08-05T08:24:56;4.67;;;2.10;;
11228;SDS011;5671;47.936;8.716;2022-08-05T08:27:24;4.77;;;2.50;;
11228;SDS011;5671;47.936;8.716;2022-08-05T08:29:51;6.07;;;2.70;;
11228;SDS011;5671;47.936;8.716;2022-08-05T08:32:18;6.07;;;2.80;;
11228;SDS011;5671;47.936;8.716;2022-08-05T08:34:45;5.20;;;2.40;;
11228;SDS011;5671;47.936;8.716;2022-08-05T08:37:12;5.57;;;2.50;;
11228;SDS011;5671;47.936;8.716;2022-08-05T08:39:39;3.87;;;2.50;;
11228;SDS011;5671;47.936;8.716;2022-08-05T08:42:07;5.07;;;2.40;;
11228;SDS011;5671;47.936;8.716;2022-08-05T08:44:36;6.33;;;2.40;;
11228;SDS011;5671;47.936;8.716;2022-08-05T08:47:05;5.43;;;2.47;;
11228;SDS011;5671;47.936;8.716;2022-08-05T08:49:33;5.33;;;2.77;;
11228;SDS011;5671;47.936;8.716;2022-08-05T08:52:05;3.73;;;2.10;;
11228;SDS011;5671;47.936;8.716;2022-08-05T08:54:37;4.93;;;2.20;;
11228;SDS011;5671;47.936;8.716;2022-08-05T08:57:05;5.23;;;2.17;;
11228;SDS011;5671;47.936;8.716;2022-08-05T08:59:33;4.30;;;2.40;;
11228;SDS011;5671;47.936;8.716;2022-08-05T09:02:03;2.93;;;2.20;;
11228;SDS011;5671;47.936;8.716;2022-08-05T09:04:32;4.47;;;2.20;;
11228;SDS011;5671;47.936;8.716;2022-08-05T09:07:01;7.10;;;2.20;;
11228;SDS011;5671;47.936;8.716;2022-08-05T09:09:29;5.37;;;2.50;;
11228;SDS011;5671;47.936;8.716;2022-08-05T09:11:56;5.93;;;2.50;;
11228;SDS011;5671;47.936;8.716;2022-08-05T09:14:23;8.80;;;2.37;;
11228;SDS011;5671;47.936;8.716;2022-08-05T09:16:51;2.57;;;2.37;;
11228;SDS011;5671;47.936;8.716;2022-08-05T09:19:20;3.40;;;2.23;;
11228;SDS011;5671;47.936;8.716;2022-08-05T09:21:48;4.10;;;2.70;;
11228;SDS011;5671;47.936;8.716;2022-08-05T09:24:15;3.67;;;2.40;;
11228;SDS011;5671;47.936;8.716;2022-08-05T09:26:45;5.03;;;2.40;;
11228;SDS011;5671;47.936;8.716;2022-08-05T09:29:15;5.20;;;2.50;;
11228;SDS011;5671;47.936;8.716;2022-08-05T09:31:42;4.67;;;2.63;;
11228;SDS011;5671;47.936;8.716;2022-08-05T09:34:10;3.67;;;2.60;;
11228;SDS011;5671;47.936;8.716;2022-08-05T09:36:43;5.03;;;2.40;;
11228;SDS011;5671;47.936;8.716;2022-08-05T09:39:14;5.00;;;2.67;;
11228;SDS011;5671;47.936;8.716;2022-08-05T09:41:55;7.33;;;2.57;;
11228;SDS011;5671;47.936;8.716;2022-08-05T09:44:33;3.77;;;2.60;;
11228;SDS011;5671;47.936;8.716;2022-08-05T09:47:08;5.03;;;3.03;;
11228;SDS011;5671;47.936;8.716;2022-08-05T09:49:39;4.30;;;2.47;;
11228;SDS011;5671;47.936;8.716;2022-08-05T09:52:19;4.57;;;2.50;;
11228;SDS011;5671;47.936;8.716;2022-08-05T09:55:01;6.93;;;2.77;;
11228;SDS011;5671;47.936;8.716;2022-08-05T09:57:31;7.37;;;2.80;;
11228;SDS011;5671;47.936;8.716;2022-08-05T10:00:07;5.17;;;2.80;;
11228;SDS011;5671;47.936;8.716;2022-08-05T10:02:37;4.17;;;2.63;;
11228;SDS011;5671;47.936;8.716;2022-08-05T10:05:06;4.00;;;2.50;;
11228;SDS011;5671;47.936;8.716;2022-08-05T10:07:46;7.60;;;2.80;;
11228;SDS011;5671;47.936;8.716;2022-08-05T10:10:15;5.40;;;2.07;;
11228;SDS011;5671;47.936;8.716;2022-08-05T10:12:44;5.43;;;2.30;;
11228;SDS011;5671;47.936;8.716;2022-08-05T10:15:20;3.40;;;2.20;;
11228;SDS011;5671;47.936;8.716;2022-08-05T10:20:36;3.87;;;2.50;;
11228;SDS011;5671;47.936;8.716;2022-08-05T10:23:07;4.90;;;2.20;;
11228;SDS011;5671;47.936;8.716;2022-08-05T10:25:36;16.57;;;2.70;;
11228;SDS011;5671;47.936;8.716;2022-08-05T10:28:04;2.47;;;2.20;;
11228;SDS011;5671;47.936;8.716;2022-08-05T10:30:31;4.93;;;2.57;;
11228;SDS011;5671;47.936;8.716;2022-08-05T10:32:58;2.60;;;2.13;;
11228;SDS011;5671;47.936;8.716;2022-08-05T10:35:26;3.53;;;2.40;;
11228;SDS011;5671;47.936;8.716;2022-08-05T10:37:53;4.30;;;2.20;;
11228;SDS011;5671;47.936;8.716;2022-08-05T10:40:24;7.73;;;2.30;;
11228;SDS011;5671;47.936;8.716;2022-08-05T10:42:58;8.37;;;2.70;;
11228;SDS011;5671;47.936;8.716;2022-08-05T10:45:31;2.93;;;1.93;;
11228;SDS011;5671;47.936;8.716;2022-08-05T10:50:56;4.30;;;2.20;;
11228;SDS011;5671;47.936;8.716;2022-08-05T10:53:31;2.97;;;2.00;;
11228;SDS011;5671;47.936;8.716;2022-08-05T10:56:05;8.27;;;2.40;;
11228;SDS011;5671;47.936;8.716;2022-08-05T10:58:34;6.00;;;2.40;;
11228;SDS011;5671;47.936;8.716;2022-08-05T11:01:04;4.97;;;2.27;;
11228;SDS011;5671;47.936;8.716;2022-08-05T11:03:32;6.40;;;2.30;;
11228;SDS011;5671;47.936;8.716;2022-08-05T11:06:03;6.35;;;2.20;;
11228;SDS011;5671;47.936;8.716;2022-08-05T11:08:32;10.00;;;2.38;;
11228;SDS011;5671;47.936;8.716;2022-08-05T11:14:00;6.70;;;2.50;;
11228;SDS011;5671;47.936;8.716;2022-08-05T11:16:28;2.97;;;1.70;;
11228;SDS011;5671;47.936;8.716;2022-08-05T11:21:51;2.72;;;2.20;;
11228;SDS011;5671;47.936;8.716;2022-08-05T11:24:18;4.07;;;2.38;;
11228;SDS011;5671;47.936;8.716;2022-08-05T11:26:49;12.98;;;2.88;;
11228;SDS011;5671;47.936;8.716;2022-08-05T11:29:37;4.15;;;1.92;;
11228;SDS011;5671;47.936;8.716;2022-08-05T11:32:24;3.55;;;2.13;;
11228;SDS011;5671;47.936;8.716;2022-08-05T11:34:53;6.60;;;2.10;;
11228;SDS011;5671;47.936;8.716;2022-08-05T11:40:07;2.78;;;1.90;;
11228;SDS011;5671;47.936;8.716;2022-08-05T11:42:39;7.57;;;1.80;;
11228;SDS011;5671;47.936;8.716;2022-08-05T11:45:11;1.92;;;1.75;;
11228;SDS011;5671;47.936;8.716;2022-08-05T11:47:38;4.80;;;2.30;;
11228;SDS011;5671;47.936;8.716;2022-08-05T11:50:05;4.38;;;2.03;;
11228;SDS011;5671;47.936;8.716;2022-08-05T11:52:32;2.83;;;1.90;;
11228;SDS011;5671;47.936;8.716;2022-08-05T11:54:59;6.10;;;2.20;;
11228;SDS011;5671;47.936;8.716;2022-08-05T11:57:29;2.60;;;1.83;;
11228;SDS011;5671;47.936;8.716;2022-08-05T11:59:57;4.43;;;2.10;;
11228;SDS011;5671;47.936;8.716;2022-08-05T12:02:25;2.10;;;1.83;;
11228;SDS011;5671;47.936;8.716;2022-08-05T12:04:55;4.80;;;1.90;;
11228;SDS011;5671;47.936;8.716;2022-08-05T12:07:22;3.95;;;2.20;;
11228;SDS011;5671;47.936;8.716;2022-08-05T12:09:51;3.25;;;2.22;;
11228;SDS011;5671;47.936;8.716;2022-08-05T12:12:22;2.92;;;1.75;;
11228;SDS011;5671;47.936;8.716;2022-08-05T12:14:51;4.70;;;2.38;;
11228;SDS011;5671;47.936;8.716;2022-08-05T12:17:20;6.15;;;2.20;;
11228;SDS011;5671;47.936;8.716;2022-08-05T12:19:49;2.13;;;1.83;;
11228;SDS011;5671;47.936;8.716;2022-08-05T12:22:18;3.15;;;1.90;;
11228;SDS011;5671;47.936;8.716;2022-08-05T12:24:46;4.40;;;2.10;;
11228;SDS011;5671;47.936;8.716;2022-08-05T12:27:19;3.08;;;2.10;;
11228;SDS011;5671;47.936;8.716;2022-08-05T12:29:57;4.53;;;2.10;;
11228;SDS011;5671;47.936;8.716;2022-08-05T12:32:27;4.18;;;2.08;;
11228;SDS011;5671;47.936;8.716;2022-08-05T12:34:54;2.85;;;1.77;;
11228;SDS011;5671;47.936;8.716;2022-08-05T12:37:21;4.78;;;2.40;;
11228;SDS011;5671;47.936;8.716;2022-08-05T12:39:49;3.67;;;1.80;;
11228;SDS011;5671;47.936;8.716;2022-08-05T12:42:17;2.28;;;1.80;;
11228;SDS011;5671;47.936;8.716;2022-08-05T12:44:46;3.60;;;1.90;;
11228;SDS011;5671;47.936;8.716;2022-08-05T12:47:13;7.95;;;1.90;;
11228;SDS011;5671;47.936;8.716;2022-08-05T12:49:54;6.97;;;2.00;;
11228;SDS011;5671;47.936;8.716;2022-08-05T12:52:21;5.13;;;2.28;;
11228;SDS011;5671;47.936;8.716;2022-08-05T12:54:48;5.05;;;1.95;;
11228;SDS011;5671;47.936;8.716;2022-08-05T12:57:15;3.75;;;1.95;;
11228;SDS011;5671;47.936;8.716;2022-08-05T12:59:45;3.90;;;2.22;;
11228;SDS011;5671;47.936;8.716;2022-08-05T13:02:15;4.88;;;2.00;;
11228;SDS011;5671;47.936;8.716;2022-08-05T13:04:46;4.40;;;2.10;;
11228;SDS011;5671;47.936;8.716;2022-08-05T13:07:15;9.07;;;2.00;;
11228;SDS011;5671;47.936;8.716;2022-08-05T13:09:47;5.18;;;2.00;;
11228;SDS011;5671;47.936;8.716;2022-08-05T13:12:16;2.95;;;1.95;;
11228;SDS011;5671;47.936;8.716;2022-08-05T13:14:45;5.40;;;2.17;;
11228;SDS011;5671;47.936;8.716;2022-08-05T13:17:17;2.20;;;2.00;;
11228;SDS011;5671;47.936;8.716;2022-08-05T13:20:00;3.58;;;2.10;;
11228;SDS011;5671;47.936;8.716;2022-08-05T13:22:28;4.25;;;2.15;;
11228;SDS011;5671;47.936;8.716;2022-08-05T13:24:59;4.68;;;2.20;;
11228;SDS011;5671;47.936;8.716;2022-08-05T13:27:28;3.83;;;2.22;;
11228;SDS011;5671;47.936;8.716;2022-08-05T13:29:56;4.68;;;2.17;;
11228;SDS011;5671;47.936;8.716;2022-08-05T13:32:23;4.35;;;2.03;;
11228;SDS011;5671;47.936;8.716;2022-08-05T13:34:51;2.72;;;1.80;;
11228;SDS011;5671;47.936;8.716;2022-08-05T13:37:20;2.42;;;2.20;;
11228;SDS011;5671;47.936;8.716;2022-08-05T13:39:48;3.65;;;2.17;;
11228;SDS011;5671;47.936;8.716;2022-08-05T13:42:15;7.05;;;2.20;;
11228;SDS011;5671;47.936;8.716;2022-08-05T13:44:42;5.10;;;1.90;;
11228;SDS011;5671;47.936;8.716;2022-08-05T13:47:09;4.57;;;2.05;;
11228;SDS011;5671;47.936;8.716;2022-08-05T13:49:36;6.47;;;2.00;;
11228;SDS011;5671;47.936;8.716;2022-08-05T13:52:10;5.68;;;2.00;;
11228;SDS011;5671;47.936;8.716;2022-08-05T13:54:39;4.20;;;2.00;;
11228;SDS011;5671;47.936;8.716;2022-08-05T13:57:07;3.13;;;2.08;;
11228;SDS011;5671;47.936;8.716;2022-08-05T13:59:35;4.22;;;2.00;;
11228;SDS011;5671;47.936;8.716;2022-08-05T14:02:03;4.43;;;2.00;;
11228;SDS011;5671;47.936;8.716;2022-08-05T14:04:32;3.70;;;1.90;;
11228;SDS011;5671;47.936;8.716;2022-08-05T14:07:17;2.47;;;1.75;;
11228;SDS011;5671;47.936;8.716;2022-08-05T14:09:47;2.97;;;1.65;;
11228;SDS011;5671;47.936;8.716;2022-08-05T14:12:14;4.32;;;1.83;;
11228;SDS011;5671;47.936;8.716;2022-08-05T14:14:41;4.07;;;2.03;;
11228;SDS011;5671;47.936;8.716;2022-08-05T14:17:08;5.47;;;1.90;;
11228;SDS011;5671;47.936;8.716;2022-08-05T14:19:35;5.32;;;2.00;;
11228;SDS011;5671;47.936;8.716;2022-08-05T14:22:02;4.72;;;2.10;;
11228;SDS011;5671;47.936;8.716;2022-08-05T14:24:29;2.42;;;1.80;;
11228;SDS011;5671;47.936;8.716;2022-08-05T14:26:58;3.53;;;2.05;;
11228;SDS011;5671;47.936;8.716;2022-08-05T14:29:25;3.35;;;2.05;;
11228;SDS011;5671;47.936;8.716;2022-08-05T14:31:52;4.53;;;2.05;;
11228;SDS011;5671;47.936;8.716;2022-08-05T14:34:19;4.25;;;2.00;;
11228;SDS011;5671;47.936;8.716;2022-08-05T14:36:46;3.08;;;1.70;;
11228;SDS011;5671;47.936;8.716;2022-08-05T14:39:13;4.75;;;2.00;;
11228;SDS011;5671;47.936;8.716;2022-08-05T14:41:40;2.25;;;1.90;;
11228;SDS011;5671;47.936;8.716;2022-08-05T14:44:08;3.20;;;1.90;;
11228;SDS011;5671;47.936;8.716;2022-08-05T14:46:35;4.78;;;1.90;;
11228;SDS011;5671;47.936;8.716;2022-08-05T14:49:03;4.40;;;2.10;;
11228;SDS011;5671;47.936;8.716;2022-08-05T14:51:30;3.80;;;2.13;;
11228;SDS011;5671;47.936;8.716;2022-08-05T14:53:58;4.00;;;2.03;;
11228;SDS011;5671;47.936;8.716;2022-08-05T14:56:25;3.75;;;1.98;;
11228;SDS011;5671;47.936;8.716;2022-08-05T14:58:52;3.22;;;1.90;;
11228;SDS011;5671;47.936;8.716;2022-08-05T15:01:20;2.75;;;1.90;;
11228;SDS011;5671;47.936;8.716;2022-08-05T15:03:47;3.95;;;1.90;;
11228;SDS011;5671;47.936;8.716;2022-08-05T15:06:14;3.45;;;1.83;;
11228;SDS011;5671;47.936;8.716;2022-08-05T15:08:41;3.58;;;2.05;;
11228;SDS011;5671;47.936;8.716;2022-08-05T15:11:09;4.90;;;2.17;;
11228;SDS011;5671;47.936;8.716;2022-08-05T15:13:36;5.10;;;2.22;;
11228;SDS011;5671;47.936;8.716;2022-08-05T15:16:03;5.80;;;2.25;;
11228;SDS011;5671;47.936;8.716;2022-08-05T15:18:32;6.38;;;2.63;;
11228;SDS011;5671;47.936;8.716;2022-08-05T15:20:59;5.90;;;2.13;;
11228;SDS011;5671;47.936;8.716;2022-08-05T15:23:26;3.90;;;2.63;;
11228;SDS011;5671;47.936;8.716;2022-08-05T15:25:54;4.93;;;2.63;;
11228;SDS011;5671;47.936;8.716;2022-08-05T15:28:21;9.88;;;3.10;;
11228;SDS011;5671;47.936;8.716;2022-08-05T15:30:48;15.13;;;4.32;;